sensor_id;sensor_type;location;lat;lon;timestamp;temperature;humidity
37658;DHT22;23500;53.268;8.308;2023-07-09T00:00:51;22.20;67.70
37658;DHT22;23500;53.268;8.308;2023-07-09T00:03:17;22.20;67.70
37658;DHT22;23500;53.268;8.308;2023-07-09T00:05:46;22.20;67.70
37658;DHT22;23500;53.268;8.308;2023-07-09T00:08:31;22.10;67.70
37658;DHT22;23500;53.268;8.308;2023-07-09T00:10:58;22.20;67.70
37658;DHT22;23500;53.268;8.308;2023-07-09T00:13:25;22.20;67.70
37658;DHT22;23500;53.268;8.308;2023-07-09T00:15:53;22.20;67.70
37658;DHT22;23500;53.268;8.308;2023-07-09T00:18:20;22.20;67.70
37658;DHT22;23500;53.268;8.308;2023-07-09T00:20:46;22.20;67.70
37658;DHT22;23500;53.268;8.308;2023-07-09T00:23:14;22.10;67.70
37658;DHT22;23500;53.268;8.308;2023-07-09T00:25:43;22.20;67.80
37658;DHT22;23500;53.268;8.308;2023-07-09T00:28:14;22.20;67.70
37658;DHT22;23500;53.268;8.308;2023-07-09T00:30:40;22.20;67.70
37658;DHT22;23500;53.268;8.308;2023-07-09T00:33:10;22.20;67.70
37658;DHT22;23500;53.268;8.308;2023-07-09T00:35:36;22.20;67.70
37658;DHT22;23500;53.268;8.308;2023-07-09T00:38:14;22.20;67.70
37658;DHT22;23500;53.268;8.308;2023-07-09T00:40:47;22.20;67.70
37658;DHT22;23500;53.268;8.308;2023-07-09T00:43:16;22.20;67.70
37658;DHT22;23500;53.268;8.308;2023-07-09T00:45:42;22.20;67.70
37658;DHT22;23500;53.268;8.308;2023-07-09T00:48:12;22.20;67.70
37658;DHT22;23500;53.268;8.308;2023-07-09T00:50:50;22.20;67.70
37658;DHT22;23500;53.268;8.308;2023-07-09T00:53:22;22.20;67.80
37658;DHT22;23500;53.268;8.308;2023-07-09T00:56:02;22.20;67.70
37658;DHT22;23500;53.268;8.308;2023-07-09T00:58:30;22.20;67.80
37658;DHT22;23500;53.268;8.308;2023-07-09T01:01:02;22.20;67.80
37658;DHT22;23500;53.268;8.308;2023-07-09T01:03:31;22.20;67.70
37658;DHT22;23500;53.268;8.308;2023-07-09T01:06:00;22.10;67.70
37658;DHT22;23500;53.268;8.308;2023-07-09T01:08:29;22.20;67.70
37658;DHT22;23500;53.268;8.308;2023-07-09T01:10:58;22.20;67.70
37658;DHT22;23500;53.268;8.308;2023-07-09T01:13:28;22.20;67.70
37658;DHT22;23500;53.268;8.308;2023-07-09T01:15:55;22.10;67.70
37658;DHT22;23500;53.268;8.308;2023-07-09T01:18:21;22.20;67.80
37658;DHT22;23500;53.268;8.308;2023-07-09T01:20:47;22.20;67.70
37658;DHT22;23500;53.268;8.308;2023-07-09T01:23:13;22.20;67.70
37658;DHT22;23500;53.268;8.308;2023-07-09T01:25:45;22.20;67.70
37658;DHT22;23500;53.268;8.308;2023-07-09T01:28:12;22.20;67.70
37658;DHT22;23500;53.268;8.308;2023-07-09T01:30:40;22.20;67.80
37658;DHT22;23500;53.268;8.308;2023-07-09T01:33:07;22.20;67.80
37658;DHT22;23500;53.268;8.308;2023-07-09T01:35:35;22.10;67.70
37658;DHT22;23500;53.268;8.308;2023-07-09T01:38:02;22.10;67.70
37658;DHT22;23500;53.268;8.308;2023-07-09T01:40:28;22.20;67.70
37658;DHT22;23500;53.268;8.308;2023-07-09T01:42:56;22.20;67.70
37658;DHT22;23500;53.268;8.308;2023-07-09T01:45:23;22.20;67.70
37658;DHT22;23500;53.268;8.308;2023-07-09T01:47:49;22.20;67.70
37658;DHT22;23500;53.268;8.308;2023-07-09T01:50:15;22.20;67.70
37658;DHT22;23500;53.268;8.308;2023-07-09T01:52:42;22.20;67.70
37658;DHT22;23500;53.268;8.308;2023-07-09T01:55:11;22.20;67.70
37658;DHT22;23500;53.268;8.308;2023-07-09T01:57:37;22.20;67.70
37658;DHT22;23500;53.268;8.308;2023-07-09T02:00:08;22.20;67.70
37658;DHT22;23500;53.268;8.308;2023-07-09T02:02:35;22.20;67.70
37658;DHT22;23500;53.268;8.308;2023-07-09T02:05:01;22.10;67.60
37658;DHT22;23500;53.268;8.308;2023-07-09T02:07:27;22.20;67.70
37658;DHT22;23500;53.268;8.308;2023-07-09T02:09:53;22.20;67.70
37658;DHT22;23500;53.268;8.308;2023-07-09T02:12:19;22.10;67.70
37658;DHT22;23500;53.268;8.308;2023-07-09T02:14:45;22.10;67.60
37658;DHT22;23500;53.268;8.308;2023-07-09T02:17:12;22.20;67.60
37658;DHT22;23500;53.268;8.308;2023-07-09T02:19:38;22.20;67.70
37658;DHT22;23500;53.268;8.308;2023-07-09T02:22:04;22.10;67.70
37658;DHT22;23500;53.268;8.308;2023-07-09T02:24:30;22.10;67.60
37658;DHT22;23500;53.268;8.308;2023-07-09T02:26:58;22.20;67.70
37658;DHT22;23500;53.268;8.308;2023-07-09T02:29:25;22.20;67.70
37658;DHT22;23500;53.268;8.308;2023-07-09T02:31:52;22.20;67.60
37658;DHT22;23500;53.268;8.308;2023-07-09T02:34:18;22.10;67.60
37658;DHT22;23500;53.268;8.308;2023-07-09T02:36:45;22.20;67.60
37658;DHT22;23500;53.268;8.308;2023-07-09T02:39:13;22.20;67.60
37658;DHT22;23500;53.268;8.308;2023-07-09T02:41:40;22.20;67.70
37658;DHT22;23500;53.268;8.308;2023-07-09T02:44:07;22.20;67.60
37658;DHT22;23500;53.268;8.308;2023-07-09T02:46:34;22.20;67.60
37658;DHT22;23500;53.268;8.308;2023-07-09T02:49:02;22.20;67.60
37658;DHT22;23500;53.268;8.308;2023-07-09T02:51:28;22.10;68.30
37658;DHT22;23500;53.268;8.308;2023-07-09T02:53:55;22.20;67.60
37658;DHT22;23500;53.268;8.308;2023-07-09T02:56:21;22.20;67.60
37658;DHT22;23500;53.268;8.308;2023-07-09T02:58:47;22.20;67.60
37658;DHT22;23500;53.268;8.308;2023-07-09T03:01:13;22.20;67.60
37658;DHT22;23500;53.268;8.308;2023-07-09T03:03:38;22.10;67.60
37658;DHT22;23500;53.268;8.308;2023-07-09T03:06:05;22.10;67.50
37658;DHT22;23500;53.268;8.308;2023-07-09T03:08:31;22.10;67.60
37658;DHT22;23500;53.268;8.308;2023-07-09T03:10:57;22.20;67.60
37658;DHT22;23500;53.268;8.308;2023-07-09T03:13:23;22.20;67.60
37658;DHT22;23500;53.268;8.308;2023-07-09T03:15:56;22.10;67.50
37658;DHT22;23500;53.268;8.308;2023-07-09T03:18:22;22.10;67.60
37658;DHT22;23500;53.268;8.308;2023-07-09T03:20:48;22.10;67.50
37658;DHT22;23500;53.268;8.308;2023-07-09T03:23:14;22.20;67.60
37658;DHT22;23500;53.268;8.308;2023-07-09T03:25:44;22.10;67.50
37658;DHT22;23500;53.268;8.308;2023-07-09T03:28:11;22.20;67.60
37658;DHT22;23500;53.268;8.308;2023-07-09T03:30:47;22.20;67.60
37658;DHT22;23500;53.268;8.308;2023-07-09T03:33:14;22.20;67.70
37658;DHT22;23500;53.268;8.308;2023-07-09T03:35:41;22.10;67.60
37658;DHT22;23500;53.268;8.308;2023-07-09T03:38:08;22.10;67.60
37658;DHT22;23500;53.268;8.308;2023-07-09T03:40:34;22.10;67.60
37658;DHT22;23500;53.268;8.308;2023-07-09T03:43:00;22.10;67.60
37658;DHT22;23500;53.268;8.308;2023-07-09T03:45:26;22.10;67.60
37658;DHT22;23500;53.268;8.308;2023-07-09T03:47:51;22.10;67.60
37658;DHT22;23500;53.268;8.308;2023-07-09T03:50:17;22.10;67.60
37658;DHT22;23500;53.268;8.308;2023-07-09T03:52:43;22.10;67.60
37658;DHT22;23500;53.268;8.308;2023-07-09T03:55:09;22.10;67.60
37658;DHT22;23500;53.268;8.308;2023-07-09T03:57:35;22.10;67.50
37658;DHT22;23500;53.268;8.308;2023-07-09T04:00:02;22.10;67.50
37658;DHT22;23500;53.268;8.308;2023-07-09T04:02:28;22.10;67.50
37658;DHT22;23500;53.268;8.308;2023-07-09T04:04:54;22.10;67.50
37658;DHT22;23500;53.268;8.308;2023-07-09T04:07:20;22.10;67.50
37658;DHT22;23500;53.268;8.308;2023-07-09T04:09:46;22.10;67.50
37658;DHT22;23500;53.268;8.308;2023-07-09T04:12:11;22.10;67.50
37658;DHT22;23500;53.268;8.308;2023-07-09T04:14:37;22.10;67.50
37658;DHT22;23500;53.268;8.308;2023-07-09T04:17:03;22.10;67.50
37658;DHT22;23500;53.268;8.308;2023-07-09T04:19:29;22.10;67.60
37658;DHT22;23500;53.268;8.308;2023-07-09T04:21:55;22.10;67.50
37658;DHT22;23500;53.268;8.308;2023-07-09T04:24:21;22.10;67.50
37658;DHT22;23500;53.268;8.308;2023-07-09T04:26:46;22.10;67.50
37658;DHT22;23500;53.268;8.308;2023-07-09T04:29:12;22.10;67.50
37658;DHT22;23500;53.268;8.308;2023-07-09T04:31:40;22.10;67.50
37658;DHT22;23500;53.268;8.308;2023-07-09T04:34:07;22.20;67.60
37658;DHT22;23500;53.268;8.308;2023-07-09T04:36:33;22.10;67.50
37658;DHT22;23500;53.268;8.308;2023-07-09T04:38:59;22.10;67.50
37658;DHT22;23500;53.268;8.308;2023-07-09T04:41:25;22.10;67.50
37658;DHT22;23500;53.268;8.308;2023-07-09T04:43:50;22.20;67.60
37658;DHT22;23500;53.268;8.308;2023-07-09T04:46:16;22.10;67.50
37658;DHT22;23500;53.268;8.308;2023-07-09T04:48:42;22.20;67.60
37658;DHT22;23500;53.268;8.308;2023-07-09T04:51:07;22.20;67.60
37658;DHT22;23500;53.268;8.308;2023-07-09T04:53:34;22.10;67.60
37658;DHT22;23500;53.268;8.308;2023-07-09T04:55:59;22.10;67.60
37658;DHT22;23500;53.268;8.308;2023-07-09T04:58:26;22.10;67.60
37658;DHT22;23500;53.268;8.308;2023-07-09T05:00:52;22.10;67.50
37658;DHT22;23500;53.268;8.308;2023-07-09T05:03:19;22.10;67.60
37658;DHT22;23500;53.268;8.308;2023-07-09T05:05:45;22.20;67.60
37658;DHT22;23500;53.268;8.308;2023-07-09T05:08:12;22.10;67.60
37658;DHT22;23500;53.268;8.308;2023-07-09T05:10:45;22.20;67.60
37658;DHT22;23500;53.268;8.308;2023-07-09T05:13:12;22.10;67.60
37658;DHT22;23500;53.268;8.308;2023-07-09T05:15:42;22.20;67.60
37658;DHT22;23500;53.268;8.308;2023-07-09T05:18:08;22.20;67.60
37658;DHT22;23500;53.268;8.308;2023-07-09T05:20:34;22.20;67.70
37658;DHT22;23500;53.268;8.308;2023-07-09T05:23:00;22.20;67.70
37658;DHT22;23500;53.268;8.308;2023-07-09T05:25:26;22.20;67.70
37658;DHT22;23500;53.268;8.308;2023-07-09T05:27:52;22.20;67.70
37658;DHT22;23500;53.268;8.308;2023-07-09T05:30:20;22.20;68.40
37658;DHT22;23500;53.268;8.308;2023-07-09T05:32:47;22.20;67.70
37658;DHT22;23500;53.268;8.308;2023-07-09T05:35:13;22.20;67.70
37658;DHT22;23500;53.268;8.308;2023-07-09T05:37:39;22.10;67.60
37658;DHT22;23500;53.268;8.308;2023-07-09T05:40:06;22.20;67.70
37658;DHT22;23500;53.268;8.308;2023-07-09T05:42:32;22.20;67.70
37658;DHT22;23500;53.268;8.308;2023-07-09T05:44:58;22.20;67.70
37658;DHT22;23500;53.268;8.308;2023-07-09T05:47:25;22.20;67.70
37658;DHT22;23500;53.268;8.308;2023-07-09T05:49:51;22.20;67.70
37658;DHT22;23500;53.268;8.308;2023-07-09T05:52:18;22.20;67.70
37658;DHT22;23500;53.268;8.308;2023-07-09T05:54:44;22.20;67.70
37658;DHT22;23500;53.268;8.308;2023-07-09T05:57:10;22.20;67.60
37658;DHT22;23500;53.268;8.308;2023-07-09T05:59:36;22.20;67.70
37658;DHT22;23500;53.268;8.308;2023-07-09T06:02:02;22.20;67.70
37658;DHT22;23500;53.268;8.308;2023-07-09T06:04:29;22.20;67.60
37658;DHT22;23500;53.268;8.308;2023-07-09T06:06:56;22.20;67.70
37658;DHT22;23500;53.268;8.308;2023-07-09T06:09:22;22.20;67.80
37658;DHT22;23500;53.268;8.308;2023-07-09T06:11:48;22.20;67.70
37658;DHT22;23500;53.268;8.308;2023-07-09T06:14:14;22.20;67.70
37658;DHT22;23500;53.268;8.308;2023-07-09T06:16:42;22.20;67.70
37658;DHT22;23500;53.268;8.308;2023-07-09T06:19:08;22.20;67.70
37658;DHT22;23500;53.268;8.308;2023-07-09T06:21:34;22.20;67.70
37658;DHT22;23500;53.268;8.308;2023-07-09T06:24:00;22.20;67.70
37658;DHT22;23500;53.268;8.308;2023-07-09T06:26:25;22.20;67.80
37658;DHT22;23500;53.268;8.308;2023-07-09T06:28:51;22.20;67.70
37658;DHT22;23500;53.268;8.308;2023-07-09T06:31:17;22.20;67.70
37658;DHT22;23500;53.268;8.308;2023-07-09T06:33:44;22.20;67.70
37658;DHT22;23500;53.268;8.308;2023-07-09T06:36:10;22.20;67.70
37658;DHT22;23500;53.268;8.308;2023-07-09T06:38:35;22.20;67.80
37658;DHT22;23500;53.268;8.308;2023-07-09T06:41:01;22.20;67.80
37658;DHT22;23500;53.268;8.308;2023-07-09T06:43:27;22.20;67.70
37658;DHT22;23500;53.268;8.308;2023-07-09T06:45:58;22.20;67.80
37658;DHT22;23500;53.268;8.308;2023-07-09T06:48:26;22.20;67.80
37658;DHT22;23500;53.268;8.308;2023-07-09T06:50:53;22.20;67.90
37658;DHT22;23500;53.268;8.308;2023-07-09T06:53:20;22.20;67.80
37658;DHT22;23500;53.268;8.308;2023-07-09T06:55:46;22.20;67.90
37658;DHT22;23500;53.268;8.308;2023-07-09T06:58:12;22.20;67.80
37658;DHT22;23500;53.268;8.308;2023-07-09T07:00:38;22.20;68.60
37658;DHT22;23500;53.268;8.308;2023-07-09T07:03:05;22.20;67.90
37658;DHT22;23500;53.268;8.308;2023-07-09T07:05:31;22.20;67.90
37658;DHT22;23500;53.268;8.308;2023-07-09T07:07:57;22.20;67.90
37658;DHT22;23500;53.268;8.308;2023-07-09T07:10:23;22.20;67.90
37658;DHT22;23500;53.268;8.308;2023-07-09T07:12:49;22.30;67.90
37658;DHT22;23500;53.268;8.308;2023-07-09T07:15:16;22.20;67.90
37658;DHT22;23500;53.268;8.308;2023-07-09T07:17:42;22.20;67.80
37658;DHT22;23500;53.268;8.308;2023-07-09T07:20:10;22.20;67.80
37658;DHT22;23500;53.268;8.308;2023-07-09T07:22:36;22.30;67.90
37658;DHT22;23500;53.268;8.308;2023-07-09T07:25:03;22.20;67.80
37658;DHT22;23500;53.268;8.308;2023-07-09T07:27:29;22.20;67.80
37658;DHT22;23500;53.268;8.308;2023-07-09T07:29:55;22.30;67.90
37658;DHT22;23500;53.268;8.308;2023-07-09T07:32:20;22.20;67.80
37658;DHT22;23500;53.268;8.308;2023-07-09T07:34:47;22.20;67.80
37658;DHT22;23500;53.268;8.308;2023-07-09T07:37:14;22.30;67.90
37658;DHT22;23500;53.268;8.308;2023-07-09T07:39:39;22.20;67.80
37658;DHT22;23500;53.268;8.308;2023-07-09T07:42:06;22.30;67.90
37658;DHT22;23500;53.268;8.308;2023-07-09T07:44:32;22.30;67.90
37658;DHT22;23500;53.268;8.308;2023-07-09T07:46:57;22.30;67.90
37658;DHT22;23500;53.268;8.308;2023-07-09T07:49:23;22.30;68.00
37658;DHT22;23500;53.268;8.308;2023-07-09T07:51:49;22.30;67.90
37658;DHT22;23500;53.268;8.308;2023-07-09T07:54:14;22.30;67.90
37658;DHT22;23500;53.268;8.308;2023-07-09T07:56:40;22.30;67.90
37658;DHT22;23500;53.268;8.308;2023-07-09T07:59:06;22.30;67.90
37658;DHT22;23500;53.268;8.308;2023-07-09T08:01:32;22.30;68.70
37658;DHT22;23500;53.268;8.308;2023-07-09T08:04:01;22.30;67.90
37658;DHT22;23500;53.268;8.308;2023-07-09T08:06:27;22.30;68.00
37658;DHT22;23500;53.268;8.308;2023-07-09T08:08:53;22.30;67.90
37658;DHT22;23500;53.268;8.308;2023-07-09T08:11:19;22.30;67.90
37658;DHT22;23500;53.268;8.308;2023-07-09T08:13:45;22.30;67.90
37658;DHT22;23500;53.268;8.308;2023-07-09T08:16:11;22.30;67.90
37658;DHT22;23500;53.268;8.308;2023-07-09T08:18:39;22.30;68.00
37658;DHT22;23500;53.268;8.308;2023-07-09T08:21:05;22.30;68.00
37658;DHT22;23500;53.268;8.308;2023-07-09T08:23:32;22.30;68.00
37658;DHT22;23500;53.268;8.308;2023-07-09T08:25:59;22.30;67.90
37658;DHT22;23500;53.268;8.308;2023-07-09T08:28:25;22.30;68.00
37658;DHT22;23500;53.268;8.308;2023-07-09T08:30:52;22.30;68.00
37658;DHT22;23500;53.268;8.308;2023-07-09T08:33:18;22.30;68.00
37658;DHT22;23500;53.268;8.308;2023-07-09T08:35:44;22.30;68.00
37658;DHT22;23500;53.268;8.308;2023-07-09T08:38:10;22.30;68.00
37658;DHT22;23500;53.268;8.308;2023-07-09T08:40:43;22.30;68.00
37658;DHT22;23500;53.268;8.308;2023-07-09T08:46:24;22.30;68.00
37658;DHT22;23500;53.268;8.308;2023-07-09T08:48:54;22.30;68.00
37658;DHT22;23500;53.268;8.308;2023-07-09T08:51:55;22.30;68.10
37658;DHT22;23500;53.268;8.308;2023-07-09T08:54:28;22.30;68.10
37658;DHT22;23500;53.268;8.308;2023-07-09T08:56:58;22.30;68.10
37658;DHT22;23500;53.268;8.308;2023-07-09T08:59:26;22.30;68.10
37658;DHT22;23500;53.268;8.308;2023-07-09T09:01:53;22.30;68.20
37658;DHT22;23500;53.268;8.308;2023-07-09T09:04:31;22.30;68.10
37658;DHT22;23500;53.268;8.308;2023-07-09T09:07:07;22.30;68.10
37658;DHT22;23500;53.268;8.308;2023-07-09T09:09:41;22.30;68.10
37658;DHT22;23500;53.268;8.308;2023-07-09T09:12:16;22.30;68.10
37658;DHT22;23500;53.268;8.308;2023-07-09T09:14:48;22.30;68.20
37658;DHT22;23500;53.268;8.308;2023-07-09T09:17:19;22.30;68.10
37658;DHT22;23500;53.268;8.308;2023-07-09T09:19:47;22.30;68.10
37658;DHT22;23500;53.268;8.308;2023-07-09T09:22:16;22.30;68.20
37658;DHT22;23500;53.268;8.308;2023-07-09T09:27:33;22.30;68.20
37658;DHT22;23500;53.268;8.308;2023-07-09T09:29:59;22.30;68.10
37658;DHT22;23500;53.268;8.308;2023-07-09T09:32:27;22.30;68.80
37658;DHT22;23500;53.268;8.308;2023-07-09T09:34:54;22.30;68.20
37658;DHT22;23500;53.268;8.308;2023-07-09T09:37:29;22.30;68.20
37658;DHT22;23500;53.268;8.308;2023-07-09T09:39:55;22.30;68.20
37658;DHT22;23500;53.268;8.308;2023-07-09T09:42:23;22.30;68.20
37658;DHT22;23500;53.268;8.308;2023-07-09T09:44:50;22.30;68.10
37658;DHT22;23500;53.268;8.308;2023-07-09T09:47:16;22.30;68.20
37658;DHT22;23500;53.268;8.308;2023-07-09T09:49:42;22.30;68.20
37658;DHT22;23500;53.268;8.308;2023-07-09T09:52:16;22.40;68.20
37658;DHT22;23500;53.268;8.308;2023-07-09T09:55:10;22.40;68.20
37658;DHT22;23500;53.268;8.308;2023-07-09T09:57:37;22.40;68.20
37658;DHT22;23500;53.268;8.308;2023-07-09T10:00:03;22.30;68.10
37658;DHT22;23500;53.268;8.308;2023-07-09T10:02:39;22.40;68.20
37658;DHT22;23500;53.268;8.308;2023-07-09T10:05:15;22.40;68.20
37658;DHT22;23500;53.268;8.308;2023-07-09T10:07:54;22.40;68.20
37658;DHT22;23500;53.268;8.308;2023-07-09T10:10:23;22.40;68.20
37658;DHT22;23500;53.268;8.308;2023-07-09T10:12:52;22.40;68.30
37658;DHT22;23500;53.268;8.308;2023-07-09T10:15:31;22.30;68.20
37658;DHT22;23500;53.268;8.308;2023-07-09T10:21:06;22.40;68.30
37658;DHT22;23500;53.268;8.308;2023-07-09T10:23:42;22.40;68.30
37658;DHT22;23500;53.268;8.308;2023-07-09T10:26:14;22.40;68.30
37658;DHT22;23500;53.268;8.308;2023-07-09T10:40:07;22.30;68.40
37658;DHT22;23500;53.268;8.308;2023-07-09T10:42:43;22.40;68.30
37658;DHT22;23500;53.268;8.308;2023-07-09T10:45:11;22.40;68.30
37658;DHT22;23500;53.268;8.308;2023-07-09T10:47:44;22.40;68.50
37658;DHT22;23500;53.268;8.308;2023-07-09T10:50:29;22.40;68.50
37658;DHT22;23500;53.268;8.308;2023-07-09T10:53:00;22.40;68.50
37658;DHT22;23500;53.268;8.308;2023-07-09T10:55:31;22.40;68.50
37658;DHT22;23500;53.268;8.308;2023-07-09T11:00:39;22.40;68.40
37658;DHT22;23500;53.268;8.308;2023-07-09T11:03:17;22.40;68.30
37658;DHT22;23500;53.268;8.308;2023-07-09T11:05:44;22.40;68.30
37658;DHT22;23500;53.268;8.308;2023-07-09T11:08:15;22.40;68.30
37658;DHT22;23500;53.268;8.308;2023-07-09T11:10:47;22.40;68.50
37658;DHT22;23500;53.268;8.308;2023-07-09T11:16:00;22.50;68.60
37658;DHT22;23500;53.268;8.308;2023-07-09T11:18:31;22.40;68.40
37658;DHT22;23500;53.268;8.308;2023-07-09T11:21:14;22.40;68.30
37658;DHT22;23500;53.268;8.308;2023-07-09T11:23:52;22.50;68.50
37658;DHT22;23500;53.268;8.308;2023-07-09T11:26:32;22.40;68.40
37658;DHT22;23500;53.268;8.308;2023-07-09T11:29:15;22.50;68.40
37658;DHT22;23500;53.268;8.308;2023-07-09T11:31:43;22.50;68.50
37658;DHT22;23500;53.268;8.308;2023-07-09T11:39:31;22.50;68.40
37658;DHT22;23500;53.268;8.308;2023-07-09T11:45:27;22.50;68.50
37658;DHT22;23500;53.268;8.308;2023-07-09T11:50:28;22.50;68.60
37658;DHT22;23500;53.268;8.308;2023-07-09T11:53:04;22.50;68.60
37658;DHT22;23500;53.268;8.308;2023-07-09T11:55:40;22.50;68.60
37658;DHT22;23500;53.268;8.308;2023-07-09T11:58:09;22.50;68.60
37658;DHT22;23500;53.268;8.308;2023-07-09T12:00:41;22.50;68.80
37658;DHT22;23500;53.268;8.308;2023-07-09T12:05:50;22.50;69.00
37658;DHT22;23500;53.268;8.308;2023-07-09T12:08:17;22.50;68.80
37658;DHT22;23500;53.268;8.308;2023-07-09T12:10:44;22.50;68.80
37658;DHT22;23500;53.268;8.308;2023-07-09T12:13:11;22.50;68.80
37658;DHT22;23500;53.268;8.308;2023-07-09T12:15:39;22.50;68.80
37658;DHT22;23500;53.268;8.308;2023-07-09T12:18:15;22.60;68.90
37658;DHT22;23500;53.268;8.308;2023-07-09T12:20:52;22.60;68.90
37658;DHT22;23500;53.268;8.308;2023-07-09T12:23:30;22.60;69.00
37658;DHT22;23500;53.268;8.308;2023-07-09T12:26:00;22.60;69.00
37658;DHT22;23500;53.268;8.308;2023-07-09T12:28:27;22.60;69.00
37658;DHT22;23500;53.268;8.308;2023-07-09T12:30:54;22.50;69.00
37658;DHT22;23500;53.268;8.308;2023-07-09T12:33:26;22.60;69.00
37658;DHT22;23500;53.268;8.308;2023-07-09T12:36:01;22.60;69.00
37658;DHT22;23500;53.268;8.308;2023-07-09T12:38:30;22.60;69.00
37658;DHT22;23500;53.268;8.308;2023-07-09T12:41:00;22.60;69.10
37658;DHT22;23500;53.268;8.308;2023-07-09T12:43:28;22.60;69.00
37658;DHT22;23500;53.268;8.308;2023-07-09T12:45:58;22.60;69.00
37658;DHT22;23500;53.268;8.308;2023-07-09T12:48:28;22.60;69.10
37658;DHT22;23500;53.268;8.308;2023-07-09T12:50:57;22.60;69.10
37658;DHT22;23500;53.268;8.308;2023-07-09T12:53:24;22.60;69.10
37658;DHT22;23500;53.268;8.308;2023-07-09T12:55:59;22.60;69.10
37658;DHT22;23500;53.268;8.308;2023-07-09T12:58:30;22.60;69.10
37658;DHT22;23500;53.268;8.308;2023-07-09T13:00:57;22.60;69.10
37658;DHT22;23500;53.268;8.308;2023-07-09T13:03:30;22.60;69.10
37658;DHT22;23500;53.268;8.308;2023-07-09T13:06:05;22.60;69.20
37658;DHT22;23500;53.268;8.308;2023-07-09T13:08:39;22.70;69.40
37658;DHT22;23500;53.268;8.308;2023-07-09T13:11:15;22.70;69.10
37658;DHT22;23500;53.268;8.308;2023-07-09T13:13:41;22.80;69.30
37658;DHT22;23500;53.268;8.308;2023-07-09T13:16:07;22.80;69.40
37658;DHT22;23500;53.268;8.308;2023-07-09T13:18:32;22.80;69.40
37658;DHT22;23500;53.268;8.308;2023-07-09T13:20:59;22.80;69.50
37658;DHT22;23500;53.268;8.308;2023-07-09T13:23:28;22.80;69.50
37658;DHT22;23500;53.268;8.308;2023-07-09T13:25:54;22.80;69.40
37658;DHT22;23500;53.268;8.308;2023-07-09T13:28:24;22.80;69.40
37658;DHT22;23500;53.268;8.308;2023-07-09T13:31:15;22.80;69.40
37658;DHT22;23500;53.268;8.308;2023-07-09T13:33:42;22.80;69.40
37658;DHT22;23500;53.268;8.308;2023-07-09T13:36:08;22.80;69.40
37658;DHT22;23500;53.268;8.308;2023-07-09T13:38:34;22.80;69.40
37658;DHT22;23500;53.268;8.308;2023-07-09T13:41:09;22.80;70.10
37658;DHT22;23500;53.268;8.308;2023-07-09T13:43:36;22.80;69.40
37658;DHT22;23500;53.268;8.308;2023-07-09T13:46:03;22.80;69.40
37658;DHT22;23500;53.268;8.308;2023-07-09T13:48:30;22.80;69.40
37658;DHT22;23500;53.268;8.308;2023-07-09T13:50:57;22.80;69.40
37658;DHT22;23500;53.268;8.308;2023-07-09T13:53:29;22.80;69.40
37658;DHT22;23500;53.268;8.308;2023-07-09T13:55:55;22.80;69.40
37658;DHT22;23500;53.268;8.308;2023-07-09T13:58:24;22.80;69.40
37658;DHT22;23500;53.268;8.308;2023-07-09T14:00:55;22.80;69.40
37658;DHT22;23500;53.268;8.308;2023-07-09T14:03:24;22.80;69.40
37658;DHT22;23500;53.268;8.308;2023-07-09T14:05:52;22.80;69.40
37658;DHT22;23500;53.268;8.308;2023-07-09T14:08:18;22.80;69.40
37658;DHT22;23500;53.268;8.308;2023-07-09T14:10:46;22.80;69.40
37658;DHT22;23500;53.268;8.308;2023-07-09T14:13:17;22.80;69.40
37658;DHT22;23500;53.268;8.308;2023-07-09T14:15:43;22.80;69.40
37658;DHT22;23500;53.268;8.308;2023-07-09T14:18:14;22.80;69.20
37658;DHT22;23500;53.268;8.308;2023-07-09T14:20:40;22.80;69.40
37658;DHT22;23500;53.268;8.308;2023-07-09T14:23:13;22.80;69.50
37658;DHT22;23500;53.268;8.308;2023-07-09T14:25:39;22.80;69.60
37658;DHT22;23500;53.268;8.308;2023-07-09T14:28:23;22.80;69.60
37658;DHT22;23500;53.268;8.308;2023-07-09T14:30:50;22.80;69.60
37658;DHT22;23500;53.268;8.308;2023-07-09T14:33:20;22.80;69.60
37658;DHT22;23500;53.268;8.308;2023-07-09T14:35:47;22.80;69.60
37658;DHT22;23500;53.268;8.308;2023-07-09T14:38:21;22.80;69.60
37658;DHT22;23500;53.268;8.308;2023-07-09T14:40:49;22.80;69.60
37658;DHT22;23500;53.268;8.308;2023-07-09T14:43:15;22.80;69.60
37658;DHT22;23500;53.268;8.308;2023-07-09T14:45:41;22.80;69.50
37658;DHT22;23500;53.268;8.308;2023-07-09T14:48:15;22.80;69.60
37658;DHT22;23500;53.268;8.308;2023-07-09T14:50:41;22.80;69.50
37658;DHT22;23500;53.268;8.308;2023-07-09T14:55:40;22.80;69.50
37658;DHT22;23500;53.268;8.308;2023-07-09T14:58:17;22.80;69.40
37658;DHT22;23500;53.268;8.308;2023-07-09T15:00:44;22.80;70.20
37658;DHT22;23500;53.268;8.308;2023-07-09T15:03:25;22.80;69.50
37658;DHT22;23500;53.268;8.308;2023-07-09T15:05:52;22.80;69.40
37658;DHT22;23500;53.268;8.308;2023-07-09T15:08:21;22.80;69.40
37658;DHT22;23500;53.268;8.308;2023-07-09T15:10:48;22.80;69.40
37658;DHT22;23500;53.268;8.308;2023-07-09T15:13:33;22.80;69.40
37658;DHT22;23500;53.268;8.308;2023-07-09T15:16:00;22.80;69.40
37658;DHT22;23500;53.268;8.308;2023-07-09T15:18:26;22.80;69.40
37658;DHT22;23500;53.268;8.308;2023-07-09T15:21:01;22.80;69.40
37658;DHT22;23500;53.268;8.308;2023-07-09T15:23:28;22.80;69.40
37658;DHT22;23500;53.268;8.308;2023-07-09T15:25:55;22.80;69.40
37658;DHT22;23500;53.268;8.308;2023-07-09T15:28:21;22.80;69.40
37658;DHT22;23500;53.268;8.308;2023-07-09T15:30:47;22.80;69.40
37658;DHT22;23500;53.268;8.308;2023-07-09T15:33:15;22.80;69.30
37658;DHT22;23500;53.268;8.308;2023-07-09T15:35:43;22.80;69.30
37658;DHT22;23500;53.268;8.308;2023-07-09T15:38:27;22.80;69.30
37658;DHT22;23500;53.268;8.308;2023-07-09T15:40:54;22.80;69.30
37658;DHT22;23500;53.268;8.308;2023-07-09T15:43:20;22.80;69.30
37658;DHT22;23500;53.268;8.308;2023-07-09T15:45:48;22.80;70.00
37658;DHT22;23500;53.268;8.308;2023-07-09T15:48:28;22.80;69.20
37658;DHT22;23500;53.268;8.308;2023-07-09T15:50:56;22.80;69.20
37658;DHT22;23500;53.268;8.308;2023-07-09T15:53:22;22.80;69.30
37658;DHT22;23500;53.268;8.308;2023-07-09T15:55:48;22.80;69.20
37658;DHT22;23500;53.268;8.308;2023-07-09T15:58:21;22.80;69.30
37658;DHT22;23500;53.268;8.308;2023-07-09T16:00:49;22.80;69.20
37658;DHT22;23500;53.268;8.308;2023-07-09T16:03:15;22.80;69.20
37658;DHT22;23500;53.268;8.308;2023-07-09T16:05:42;22.80;69.20
37658;DHT22;23500;53.268;8.308;2023-07-09T16:08:09;22.80;69.30
37658;DHT22;23500;53.268;8.308;2023-07-09T16:10:34;22.80;69.30
37658;DHT22;23500;53.268;8.308;2023-07-09T16:13:00;22.80;69.30
37658;DHT22;23500;53.268;8.308;2023-07-09T16:15:26;22.80;69.30
37658;DHT22;23500;53.268;8.308;2023-07-09T16:17:52;22.80;69.30
37658;DHT22;23500;53.268;8.308;2023-07-09T16:20:23;22.80;69.20